Winfield, Iowa
Current Conditions -  °F | °C
As of 6:35 AM on Tuesday 27 Jan 2015 (Local Time) from KMPZ Reporting Station
Overcast Overcast  
Wind Chill: 27°   Ceiling: 1700
Heat Index: 33°   Visibility: 10mi
Dew Point: 32°   Wind: 7mph
Humidity: 94%   Direction: 320°NW
Pressure: 30.08"   Gusts: NA
Location:  41.12°N, 91.44°W
Report Text: KMPZ 271235Z AUTO 32006KT 10SM OVC017 01/00 A3008 RMK AO2 T00080000
Loading
Personal Weather Stations






























Interactive Weather Map New forecast layout! Learn more

10-Day Weather Forecast

Advertisements
Track Severe Weather on mobile